Time;durP1;ratioP1;P1;durP2;ratioP2;P2;SDS_P1;SDS_P2;PMS_P1;PMS_P2;Temp;Humidity;BMP_temperature;BMP_pressure;BME280_temperature;BME280_humidity;BME280_pressure;Samples;Min_cycle;Max_cycle;Signal;HPM_P1;HPM_P2
2021/01/20 00:01:46;;;;;;;37.67;5.47;;;;;;;11.62;100.00;99757.44;5070809;28;20403;-68
2021/01/20 00:04:12;;;;;;;38.33;6.10;;;;;;;11.58;100.00;99767.31;5070897;28;20056;-68
2021/01/20 00:06:37;;;;;;;44.92;6.68;;;;;;;11.60;100.00;99776.06;5070810;28;20093;-68
2021/01/20 00:09:03;;;;;;;44.78;7.32;;;;;;;11.59;100.00;99752.53;5070739;28;20426;-68
2021/01/20 00:11:29;;;;;;;42.70;6.05;;;;;;;11.57;100.00;99742.97;5070719;28;20029;-68
2021/01/20 00:13:55;;;;;;;44.10;6.20;;;;;;;11.57;100.00;99732.84;5070807;28;20393;-68
2021/01/20 00:16:21;;;;;;;32.50;5.28;;;;;;;11.55;100.00;99745.16;5070804;28;20047;-68
2021/01/20 00:18:46;;;;;;;33.70;5.40;;;;;;;11.52;100.00;99735.59;5052712;28;20036;-68
2021/01/20 00:21:12;;;;;;;33.78;5.03;;;;;;;11.52;100.00;99730.13;5070733;28;20525;-68
2021/01/20 00:50:15;;;;;;;31.10;4.95;;;;;;;11.53;100.00;99712.63;5058075;28;20537;-68
2021/01/20 00:52:40;;;;;;;22.08;3.25;;;;;;;11.55;100.00;99704.97;5074139;28;20063;-68
2021/01/20 00:55:08;;;;;;;26.30;4.25;;;;;;;11.55;100.00;99674.88;5074329;28;20121;-68
2021/01/20 00:57:33;;;;;;;13.50;3.50;;;;;;;11.56;100.00;99682.00;5074165;28;20115;-68
2021/01/20 00:59:59;;;;;;;28.08;4.45;;;;;;;11.56;100.00;99692.94;5074151;28;20552;-68
2021/01/20 01:02:25;;;;;;;17.52;3.70;;;;;;;11.57;100.00;99688.28;5073937;28;20093;-67
2021/01/20 01:04:51;;;;;;;17.52;3.33;;;;;;;11.56;100.00;99682.00;5074239;28;20083;-68
2021/01/20 01:07:55;;;;;;;32.28;4.45;;;;;;;11.55;100.00;99683.09;5074004;28;20097;-68
2021/01/20 01:10:21;;;;;;;30.13;3.78;;;;;;;11.56;100.00;99646.44;5073877;28;20150;-68
2021/01/20 01:12:46;;;;;;;30.25;5.40;;;;;;;11.54;100.00;99681.44;5055969;28;20116;-68
2021/01/20 01:15:13;;;;;;;28.35;4.57;;;;;;;11.54;100.00;99681.44;5073607;28;20067;-68
2021/01/20 01:17:38;;;;;;;35.75;5.07;;;;;;;11.54;100.00;99656.84;5073889;28;20044;-68
2021/01/20 01:20:04;;;;;;;27.20;5.13;;;;;;;11.53;100.00;99649.75;5073950;28;20051;-68
2021/01/20 01:22:30;;;;;;;23.17;4.18;;;;;;;11.54;100.00;99651.38;5073795;28;20611;-68
2021/01/20 01:24:55;;;;;;;33.13;4.22;;;;;;;11.53;100.00;99654.38;5073843;28;20040;-68
2021/01/20 01:27:21;;;;;;;37.28;5.03;;;;;;;11.51;100.00;99657.41;5055980;28;20141;-68
2021/01/20 01:29:52;;;;;;;33.95;5.32;;;;;;;11.54;100.00;99654.09;5073625;28;20060;-68
2021/01/20 01:32:18;;;;;;;48.72;5.38;;;;;;;11.53;100.00;99648.91;5073591;28;20040;-68
2021/01/20 01:34:44;;;;;;;41.00;5.32;;;;;;;11.53;100.00;99644.28;5073547;28;20037;-68
2021/01/20 01:37:10;;;;;;;50.85;7.97;;;;;;;11.55;100.00;99641.25;5073669;28;20482;-68
2021/01/20 01:39:36;;;;;;;59.58;7.75;;;;;;;11.55;100.00;99601.06;5073431;28;20036;-68
2021/01/20 01:42:04;;;;;;;58.60;8.63;;;;;;;11.56;100.00;99638.25;5073300;28;20036;-67
2021/01/20 01:44:30;;;;;;;67.70;9.38;;;;;;;11.58;100.00;99618.81;5073547;28;20045;-68
2021/01/20 01:46:56;;;;;;;72.70;10.40;;;;;;;11.60;100.00;99614.69;5073343;28;20278;-68
2021/01/20 01:49:21;;;;;;;71.78;9.15;;;;;;;11.61;100.00;99618.25;5073390;28;20040;-68
2021/01/20 01:51:47;;;;;;;78.68;10.38;;;;;;;11.59;100.00;99615.81;5073155;28;20048;-68
2021/01/20 01:54:14;;;;;;;66.28;9.82;;;;;;;11.61;100.00;99613.59;5073390;28;20094;-68
2021/01/20 01:56:40;;;;;;;89.47;11.40;;;;;;;11.61;100.00;99621.00;5073094;28;20075;-68
2021/01/20 01:59:06;;;;;;;74.15;11.00;;;;;;;11.61;100.00;99618.25;5072594;28;20040;-68
2021/01/20 02:01:31;;;;;;;78.25;10.82;;;;;;;11.63;100.00;99605.97;5073054;28;20032;-68
2021/01/20 02:03:57;;;;;;;93.45;10.75;;;;;;;11.62;100.00;99604.28;5073122;28;20149;-68
2021/01/20 02:06:23;;;;;;;65.13;9.43;;;;;;;11.64;100.00;99607.59;5073020;28;20045;-68
2021/01/20 02:08:49;;;;;;;54.85;8.30;;;;;;;11.64;100.00;99596.66;5073396;28;20037;-68
2021/01/20 02:11:22;;;;;;;54.83;10.48;;;;;;;11.65;100.00;99598.28;5072889;28;20402;-68
2021/01/20 02:14:17;;;;;;;59.92;8.90;;;;;;;11.64;100.00;99613.06;5073309;28;20029;-68
2021/01/20 02:16:54;;;;;;;69.22;10.00;;;;;;;11.64;100.00;99607.59;5073029;28;20126;-68
2021/01/20 02:19:30;;;;;;;54.42;8.38;;;;;;;11.63;100.00;99600.50;5072791;28;20036;-68
2021/01/20 02:22:11;;;;;;;68.93;8.68;;;;;;;11.62;100.00;99593.34;5072657;28;20111;-68
2021/01/20 02:25:02;;;;;;;64.72;8.65;;;;;;;11.61;100.00;99586.25;5072796;28;20032;-67
2021/01/20 02:27:39;;;;;;;63.60;8.38;;;;;;;11.60;100.00;99594.75;5043564;28;20118;-68
2021/01/20 02:30:08;;;;;;;58.35;9.00;;;;;;;11.60;100.00;99592.81;5072571;28;20406;-67
2021/01/20 02:32:35;;;;;;;69.63;11.20;;;;;;;11.58;100.00;99588.75;5072782;28;20032;-68
2021/01/20 02:35:02;;;;;;;70.25;9.82;;;;;;;11.59;100.00;99576.69;5072504;28;20052;-68
2021/01/20 02:37:29;;;;;;;79.82;12.32;;;;;;;11.58;100.00;99575.88;5072788;28;20150;-68
2021/01/20 02:39:56;;;;;;;72.65;9.88;;;;;;;11.58;100.00;99567.69;5072292;28;20094;-68
2021/01/20 02:42:21;;;;;;;82.28;12.00;;;;;;;11.57;100.00;99579.72;5054521;28;20032;-68
2021/01/20 02:44:47;;;;;;;73.78;11.13;;;;;;;11.57;100.00;99557.03;5072243;28;20032;-68
2021/01/20 02:47:13;;;;;;;64.47;10.27;;;;;;;11.56;100.00;99539.78;5072221;28;20048;-68
2021/01/20 02:49:39;;;;;;;75.57;11.48;;;;;;;11.58;100.00;99554.00;5072262;28;20395;-68
2021/01/20 02:52:25;;;;;;;74.78;11.68;;;;;;;11.57;100.00;99546.91;5071963;28;20086;-68
2021/01/20 02:54:52;;;;;;;73.50;11.75;;;;;;;11.59;100.00;99538.41;5071978;28;20119;-68
2021/01/20 02:57:19;;;;;;;74.60;10.30;;;;;;;11.57;100.00;99552.38;5072087;28;20043;-68
2021/01/20 02:59:46;;;;;;;66.78;9.38;;;;;;;11.59;100.00;99552.91;5071942;28;20085;-68
2021/01/20 03:02:16;;;;;;;64.68;10.50;;;;;;;11.60;100.00;99549.06;5071741;28;20043;-68
2021/01/20 03:04:46;;;;;;;73.55;10.27;;;;;;;11.59;100.00;99533.75;5071877;28;20039;-68
2021/01/20 03:07:13;;;;;;;69.82;10.60;;;;;;;11.58;100.00;99537.59;5071938;28;20044;-68
2021/01/20 03:09:38;;;;;;;85.93;10.38;;;;;;;11.59;100.00;99528.28;5070746;28;20033;-68
2021/01/20 03:12:05;;;;;;;74.45;12.68;;;;;;;11.57;100.00;99522.28;5071722;28;20039;-68
2021/01/20 03:14:32;;;;;;;71.55;11.30;;;;;;;11.58;100.00;99531.31;5071770;28;20041;-68
2021/01/20 03:16:57;;;;;;;71.47;10.50;;;;;;;11.58;100.00;99515.72;5071594;28;20539;-68
2021/01/20 03:19:23;;;;;;;64.43;10.23;;;;;;;11.60;100.00;99524.47;5071487;28;20119;-68
2021/01/20 03:21:48;;;;;;;68.47;9.70;;;;;;;11.57;100.00;99518.75;5071505;28;20435;-68
2021/01/20 03:24:14;;;;;;;63.05;10.10;;;;;;;11.56;100.00;99504.25;5071615;28;20059;-67
2021/01/20 03:26:40;;;;;;;58.78;10.77;;;;;;;11.56;100.00;99504.25;5071385;28;20044;-68
2021/01/20 03:29:06;;;;;;;65.07;10.18;;;;;;;11.55;100.00;99505.34;5071403;28;20098;-68
2021/01/20 03:31:31;;;;;;;73.72;11.40;;;;;;;11.52;100.00;99508.66;5071823;28;20037;-68
2021/01/20 03:33:57;;;;;;;72.78;12.25;;;;;;;11.48;100.00;99494.72;5071496;28;20040;-68
2021/01/20 03:36:25;;;;;;;70.30;11.05;;;;;;;11.47;100.00;99486.81;5036572;28;20052;-68
2021/01/20 03:38:50;;;;;;;79.95;13.60;;;;;;;11.43;100.00;99488.44;5071239;28;20032;-68
2021/01/20 03:41:16;;;;;;;83.85;13.82;;;;;;;11.37;100.00;99492.31;5071175;28;20029;-68
2021/01/20 03:43:41;;;;;;;68.47;11.07;;;;;;;11.33;100.00;99480.31;5071133;28;20072;-68
2021/01/20 03:46:07;;;;;;;61.17;10.43;;;;;;;11.28;100.00;99481.16;5071071;28;20037;-68
2021/01/20 03:48:33;;;;;;;56.03;9.32;;;;;;;11.26;100.00;99477.88;5053419;28;20490;-68
2021/01/20 03:50:58;;;;;;;47.72;8.52;;;;;;;11.23;100.00;99469.41;5071314;28;20048;-68
2021/01/20 03:53:24;;;;;;;45.97;8.80;;;;;;;11.22;100.00;99462.31;5071001;28;20139;-68
2021/01/20 03:55:49;;;;;;;50.17;7.75;;;;;;;11.20;100.00;99459.06;5071136;28;20036;-68
2021/01/20 03:58:15;;;;;;;39.42;6.95;;;;;;;11.20;100.00;99453.59;5071052;28;20401;-68
2021/01/20 04:00:40;;;;;;;48.15;7.82;;;;;;;11.15;100.00;99444.31;5070830;28;20052;-68
2021/01/20 04:03:06;;;;;;;42.97;7.70;;;;;;;11.14;100.00;99445.41;5071069;28;20151;-68
2021/01/20 04:05:32;;;;;;;43.50;8.93;;;;;;;11.12;100.00;99436.69;5070858;28;20055;-68
2021/01/20 04:07:57;;;;;;;49.50;9.13;;;;;;;11.10;100.00;99435.31;5071338;28;20079;-68
2021/01/20 04:10:23;;;;;;;61.85;9.45;;;;;;;11.09;100.00;99436.41;5070954;28;20075;-68
2021/01/20 04:12:49;;;;;;;67.30;10.43;;;;;;;11.08;100.00;99435.59;5070947;28;20406;-68
2021/01/20 04:15:14;;;;;;;61.78;10.65;;;;;;;11.07;100.00;99417.56;5070702;28;20390;-67
2021/01/20 04:17:40;;;;;;;69.40;10.60;;;;;;;11.08;100.00;99421.13;5071195;28;20090;-68
2021/01/20 04:20:06;;;;;;;66.72;11.52;;;;;;;11.07;100.00;99428.50;5070706;28;20098;-67
2021/01/20 04:22:33;;;;;;;79.68;12.18;;;;;;;11.07;100.00;99394.88;5070565;28;20025;-68
2021/01/20 04:24:59;;;;;;;74.13;11.85;;;;;;;11.07;100.00;99409.38;5070647;28;20055;-67
2021/01/20 04:27:24;;;;;;;73.95;11.60;;;;;;;11.09;100.00;99406.34;5070899;28;20384;-67
2021/01/20 04:29:50;;;;;;;75.10;11.23;;;;;;;11.07;100.00;99401.16;5070725;28;20438;-67
2021/01/20 04:32:15;;;;;;;68.05;11.88;;;;;;;11.09;100.00;99390.78;5070601;28;20046;-68
2021/01/20 04:34:41;;;;;;;68.93;10.68;;;;;;;11.07;100.00;99390.25;5070739;28;20043;-68
2021/01/20 04:37:06;;;;;;;73.63;10.40;;;;;;;11.06;100.00;99374.94;5070569;28;20533;-68
2021/01/20 04:39:32;;;;;;;65.70;10.77;;;;;;;11.05;100.00;99376.06;5070506;28;20036;-68
2021/01/20 04:41:59;;;;;;;66.38;11.07;;;;;;;11.05;100.00;99367.03;5052334;28;20075;-68
2021/01/20 04:44:25;;;;;;;60.17;11.52;;;;;;;11.06;100.00;99355.00;5070430;28;20045;-68
2021/01/20 04:46:52;;;;;;;81.25;12.80;;;;;;;11.06;100.00;99358.56;5070456;28;20128;-67
2021/01/20 04:49:19;;;;;;;62.55;12.95;;;;;;;11.07;100.00;99346.53;5070216;28;20040;-68
2021/01/20 04:51:46;;;;;;;62.13;13.00;;;;;;;11.06;100.00;99328.50;5070227;28;20123;-68
2021/01/20 04:54:12;;;;;;;61.40;12.10;;;;;;;11.07;100.00;99330.13;5070402;28;20049;-68
2021/01/20 04:56:39;;;;;;;75.60;11.82;;;;;;;11.07;100.00;99302.81;5070622;28;20047;-67
2021/01/20 04:59:05;;;;;;;62.25;11.02;;;;;;;11.05;100.00;99321.41;5070349;28;20491;-68
2021/01/20 05:01:34;;;;;;;69.05;12.40;;;;;;;11.05;100.00;99315.13;5070417;28;20143;-68
2021/01/20 05:04:01;;;;;;;66.45;11.55;;;;;;;11.05;100.00;99317.88;5070292;28;20540;-67
2021/01/20 05:06:30;;;;;;;73.97;12.18;;;;;;;11.05;100.00;99309.66;5052203;28;20470;-68
2021/01/20 05:08:57;;;;;;;54.70;10.80;;;;;;;11.05;100.00;99305.00;5052238;28;20040;-68
2021/01/20 05:11:42;;;;;;;61.92;10.90;;;;;;;11.06;100.00;99301.19;5070258;28;20036;-67
2021/01/20 05:14:15;;;;;;;66.72;10.35;;;;;;;11.06;100.00;99278.50;5070221;28;20043;-68
2021/01/20 05:16:42;;;;;;;57.15;10.35;;;;;;;11.06;100.00;99273.88;5070164;28;20036;-67
2021/01/20 05:19:09;;;;;;;63.15;10.98;;;;;;;11.06;100.00;99287.53;5070235;28;20049;-68
2021/01/20 05:21:34;;;;;;;54.45;11.38;;;;;;;11.05;100.00;99274.97;5070120;28;20032;-67
2021/01/20 05:24:22;;;;;;;75.03;12.73;;;;;;;11.04;100.00;99273.34;5070302;28;20052;-68
2021/01/20 05:26:49;;;;;;;72.72;12.02;;;;;;;11.02;100.00;99270.06;5070078;28;20103;-67
2021/01/20 05:29:16;;;;;;;56.28;10.23;;;;;;;11.02;100.00;99256.41;5052041;28;20387;-68
2021/01/20 05:31:42;;;;;;;59.13;9.95;;;;;;;11.01;100.00;99259.44;5070070;28;20035;-67
2021/01/20 05:34:34;;;;;;;52.03;10.40;;;;;;;11.01;100.00;99248.50;5073063;28;20028;-67
2021/01/20 05:37:10;;;;;;;61.25;11.75;;;;;;;10.99;100.00;99251.53;5073615;28;20473;-68
2021/01/20 05:39:39;;;;;;;86.43;14.35;;;;;;;10.98;100.00;99228.03;5073602;28;20031;-67
2021/01/20 05:42:10;;;;;;;81.57;14.25;;;;;;;10.96;100.00;99224.78;5073526;28;20032;-67
2021/01/20 05:44:37;;;;;;;97.00;14.95;;;;;;;10.95;100.00;99234.06;5073531;28;20178;-67
2021/01/20 05:47:11;;;;;;;108.43;16.27;;;;;;;10.96;100.00;99211.13;5073418;28;20063;-68
2021/01/20 05:49:37;;;;;;;78.80;14.55;;;;;;;10.98;100.00;99222.56;5073386;28;20040;-67
2021/01/20 05:52:03;;;;;;;90.68;15.93;;;;;;;11.01;100.00;99232.13;5073273;28;20056;-67
2021/01/20 05:54:36;;;;;;;88.28;16.05;;;;;;;11.02;100.00;99220.91;5073449;28;20032;-67
2021/01/20 05:57:19;;;;;;;76.32;15.02;;;;;;;11.03;100.00;99224.44;5073373;28;20040;-68
2021/01/20 05:59:46;;;;;;;89.43;17.15;;;;;;;11.02;100.00;99218.16;5073147;28;20042;-67
2021/01/20 06:02:13;;;;;;;89.50;17.73;;;;;;;11.05;100.00;99203.94;5073070;28;20067;-67
2021/01/20 06:04:40;;;;;;;86.05;15.25;;;;;;;11.06;100.00;99208.28;5073041;28;20097;-67
2021/01/20 06:07:07;;;;;;;96.82;16.70;;;;;;;11.06;100.00;99202.00;5073172;28;20068;-68
2021/01/20 06:09:36;;;;;;;105.85;17.42;;;;;;;11.07;100.00;99215.38;5073016;28;20060;-67
2021/01/20 06:12:09;;;;;;;81.25;14.18;;;;;;;11.10;100.00;99206.63;5073080;28;20406;-68
2021/01/20 06:14:35;;;;;;;100.75;15.55;;;;;;;11.14;100.00;99215.09;5072863;28;20463;-67
2021/01/20 06:17:03;;;;;;;74.57;14.27;;;;;;;11.15;100.00;99206.59;5073315;28;20044;-68
2021/01/20 06:19:31;;;;;;;75.57;12.23;;;;;;;11.17;100.00;99204.38;5072778;28;20028;-68
2021/01/20 06:21:59;;;;;;;82.43;14.77;;;;;;;11.20;100.00;99207.66;5072740;28;20033;-67
2021/01/20 06:24:39;;;;;;;73.72;12.38;;;;;;;11.22;100.00;99222.66;5072852;28;20166;-68
2021/01/20 06:27:16;;;;;;;75.22;13.85;;;;;;;11.23;100.00;99243.41;5072723;28;20052;-68
2021/01/20 06:30:13;;;;;;;63.25;13.05;;;;;;;11.26;100.00;99203.75;5072690;28;20379;-68
2021/01/20 06:32:46;;;;;;;67.03;11.80;;;;;;;11.25;100.00;99199.41;5071206;28;20033;-68
2021/01/20 06:35:12;;;;;;;63.70;12.20;;;;;;;11.27;100.00;99202.66;5072491;28;20036;-68
2021/01/20 06:37:41;;;;;;;68.82;11.85;;;;;;;11.25;100.00;99200.22;5072479;28;20036;-68
2021/01/20 06:40:21;;;;;;;85.78;13.77;;;;;;;11.25;100.00;99207.59;5072464;28;20036;-68
2021/01/20 06:42:51;;;;;;;76.05;12.98;;;;;;;11.25;100.00;99205.69;5072354;28;20029;-68
2021/01/20 06:45:17;;;;;;;90.82;13.98;;;;;;;11.24;100.00;99187.66;5072312;28;20056;-68
2021/01/20 06:47:58;;;;;;;79.13;15.90;;;;;;;11.23;100.00;99179.75;5072266;28;20040;-68
2021/01/20 06:50:28;;;;;;;76.15;13.23;;;;;;;11.20;100.00;99175.69;5071879;28;20425;-68
2021/01/20 06:53:07;;;;;;;73.47;12.90;;;;;;;11.20;100.00;99183.06;5072185;28;20066;-68
2021/01/20 06:55:38;;;;;;;90.22;15.77;;;;;;;11.18;100.00;99181.44;5072281;28;20446;-68
2021/01/20 06:58:24;;;;;;;80.68;14.13;;;;;;;11.15;100.00;99171.06;5072186;28;20041;-68
2021/01/20 07:00:58;;;;;;;71.50;14.63;;;;;;;11.15;100.00;99175.72;5054073;28;20028;-68
2021/01/20 07:03:43;;;;;;;68.88;14.32;;;;;;;11.14;100.00;99161.25;5071958;28;20067;-68
2021/01/20 07:06:38;;;;;;;83.25;14.90;;;;;;;11.14;100.00;99165.91;5071865;28;20044;-68
2021/01/20 07:09:09;;;;;;;71.25;13.57;;;;;;;11.13;100.00;99167.81;5063194;28;20049;-68
2021/01/20 07:11:56;;;;;;;88.45;15.88;;;;;;;11.14;100.00;99166.72;5071798;28;20040;-68
2021/01/20 07:14:28;;;;;;;80.30;15.75;;;;;;;11.14;100.00;99158.53;5071862;28;20048;-68
2021/01/20 07:16:55;;;;;;;97.13;16.77;;;;;;;11.13;100.00;99159.63;5071855;28;20047;-68
2021/01/20 07:19:22;;;;;;;84.90;17.50;;;;;;;11.12;100.00;99141.59;5071614;28;20033;-68
2021/01/20 07:21:48;;;;;;;63.35;14.90;;;;;;;11.11;100.00;99139.97;5071515;28;20064;-68
2021/01/20 07:24:14;;;;;;;85.80;16.83;;;;;;;11.10;100.00;99138.31;5071557;28;20059;-68
2021/01/20 07:26:40;;;;;;;75.15;15.63;;;;;;;11.10;100.00;99132.03;5071449;28;20495;-67
2021/01/20 07:29:23;;;;;;;67.97;15.32;;;;;;;11.09;100.00;99136.69;5071456;28;20422;-68
2021/01/20 07:31:50;;;;;;;74.22;16.27;;;;;;;11.09;100.00;99133.94;5071621;28;20493;-67
2021/01/20 07:34:17;;;;;;;53.25;13.70;;;;;;;11.08;100.00;99129.59;5071581;28;20041;-68
2021/01/20 07:36:43;;;;;;;53.10;12.85;;;;;;;11.07;100.00;99122.50;5071158;28;20048;-68
2021/01/20 07:39:19;;;;;;;58.53;13.35;;;;;;;11.05;100.00;99113.78;5071371;28;20051;-68
2021/01/20 07:41:58;;;;;;;74.20;15.38;;;;;;;11.03;100.00;99116.00;5071363;28;20525;-67
2021/01/20 07:44:25;;;;;;;70.50;14.38;;;;;;;11.01;100.00;99115.47;5071352;28;20101;-67
2021/01/20 07:47:04;;;;;;;65.13;15.75;;;;;;;11.00;100.00;99113.84;5071217;28;20090;-67
2021/01/20 07:49:30;;;;;;;69.45;17.17;;;;;;;11.00;100.00;99122.03;5053422;28;20490;-67
2021/01/20 07:52:09;;;;;;;64.03;15.30;;;;;;;10.99;100.00;99109.47;5070992;28;20044;-67
2021/01/20 07:54:37;;;;;;;49.60;15.32;;;;;;;10.98;100.00;99096.94;5071300;28;20037;-67
2021/01/20 07:57:14;;;;;;;50.05;14.88;;;;;;;10.98;100.00;99107.03;5070677;28;20094;-67
2021/01/20 07:59:39;;;;;;;52.05;13.85;;;;;;;10.97;100.00;99105.41;5071119;28;20041;-67
2021/01/20 08:02:15;;;;;;;53.55;13.70;;;;;;;10.96;100.00;99090.94;5071241;28;20032;-67
2021/01/20 08:04:42;;;;;;;47.22;13.50;;;;;;;10.97;100.00;99089.84;5071269;28;20048;-67
2021/01/20 08:07:09;;;;;;;52.70;13.65;;;;;;;10.98;100.00;99093.38;5071185;28;20113;-67
2021/01/20 08:09:44;;;;;;;52.72;14.95;;;;;;;10.96;100.00;99066.34;5070986;28;20044;-67
2021/01/20 08:12:14;;;;;;;55.22;15.00;;;;;;;10.94;100.00;99079.50;5071047;28;20039;-67
2021/01/20 08:14:42;;;;;;;56.78;15.50;;;;;;;10.94;100.00;99074.03;5070999;28;20024;-67
2021/01/20 08:17:09;;;;;;;58.25;15.15;;;;;;;10.94;100.00;99079.50;5071075;28;20039;-67
2021/01/20 08:19:35;;;;;;;65.55;15.30;;;;;;;10.94;100.00;99087.69;5071109;28;20047;-67
2021/01/20 08:22:12;;;;;;;59.60;15.40;;;;;;;10.92;100.00;99076.22;5071019;28;20040;-67
2021/01/20 08:24:50;;;;;;;51.13;14.50;;;;;;;10.89;100.00;99060.41;5071054;28;20068;-67
2021/01/20 08:27:24;;;;;;;59.40;15.70;;;;;;;10.88;100.00;99061.50;5070985;28;20463;-67
2021/01/20 08:29:54;;;;;;;62.25;14.82;;;;;;;10.86;100.00;99066.44;5070988;28;20505;-67
2021/01/20 08:32:20;;;;;;;71.53;16.25;;;;;;;10.85;100.00;99054.69;5070972;28;20036;-67
2021/01/20 08:34:47;;;;;;;72.82;15.57;;;;;;;10.84;100.00;99052.25;5070787;28;20035;-67
2021/01/20 08:37:18;;;;;;;75.25;16.23;;;;;;;10.80;100.00;99056.69;5070989;28;20102;-65
2021/01/20 08:39:55;;;;;;;74.95;16.27;;;;;;;10.81;100.00;99047.38;5070969;28;20372;-64
2021/01/20 08:42:25;;;;;;;76.80;17.02;;;;;;;10.81;100.00;99041.91;5070765;28;20036;-67
2021/01/20 08:45:08;;;;;;;74.47;16.60;;;;;;;10.82;100.00;99027.16;5070419;28;20052;-65
2021/01/20 08:47:47;;;;;;;87.07;16.80;;;;;;;10.82;100.00;99016.25;5070288;28;20033;-65
2021/01/20 08:50:43;;;;;;;80.03;15.45;;;;;;;10.82;100.00;99027.16;5070337;28;20558;-62
2021/01/20 08:53:11;;;;;;;82.63;17.38;;;;;;;10.83;100.00;99023.31;5067060;28;20040;-66
2021/01/20 08:55:49;;;;;;;79.60;16.27;;;;;;;10.83;100.00;99023.31;5090745;28;20097;-64
2021/01/20 08:58:51;;;;;;;85.05;16.50;;;;;;;10.83;100.00;99007.75;5090901;28;20024;-66
2021/01/20 09:01:17;;;;;;;66.55;16.52;;;;;;;10.82;100.00;99016.25;5091005;28;20472;-64
2021/01/20 09:03:54;;;;;;;75.03;17.08;;;;;;;10.82;100.00;99006.13;5090708;28;20127;-66
2021/01/20 09:06:19;;;;;;;71.57;15.75;;;;;;;10.84;100.00;99008.56;5076532;28;20051;-65
2021/01/20 09:08:45;;;;;;;68.82;15.82;;;;;;;10.83;100.00;99006.94;5073059;28;20036;-65
2021/01/20 09:11:11;;;;;;;73.57;17.23;;;;;;;10.85;100.00;99011.00;5074498;28;20122;-68
2021/01/20 09:13:36;;;;;;;77.60;16.65;;;;;;;10.88;100.00;99018.63;5074282;28;20068;-64
2021/01/20 09:16:02;;;;;;;78.60;15.98;;;;;;;10.88;100.00;98998.69;5074233;28;20040;-66
2021/01/20 09:18:28;;;;;;;76.03;15.23;;;;;;;10.90;100.00;99001.94;5074184;28;20402;-63
2021/01/20 09:20:54;;;;;;;71.47;15.20;;;;;;;10.90;100.00;99007.41;5056127;28;20538;-65
2021/01/20 09:23:21;;;;;;;74.13;13.55;;;;;;;10.88;100.00;99004.16;5074223;28;20063;-66
2021/01/20 09:25:47;;;;;;;75.78;13.25;;;;;;;10.88;100.00;98998.69;5074101;28;20029;-66
2021/01/20 09:28:13;;;;;;;73.80;14.65;;;;;;;10.85;100.00;98983.69;5074092;28;20035;-62
2021/01/20 09:30:39;;;;;;;78.13;13.63;;;;;;;10.84;100.00;98965.69;5074156;28;20090;-64
2021/01/20 09:33:05;;;;;;;80.13;15.65;;;;;;;10.87;100.00;98983.41;5074131;28;20124;-61
2021/01/20 09:35:31;;;;;;;81.45;16.98;;;;;;;10.87;100.00;98978.75;5074079;28;20119;-66
2021/01/20 09:37:57;;;;;;;74.78;15.13;;;;;;;10.87;100.00;98976.03;5063620;28;20037;-65
2021/01/20 09:40:25;;;;;;;81.82;16.23;;;;;;;10.87;100.00;98988.88;5077800;28;20174;-66
2021/01/20 09:42:52;;;;;;;75.55;13.55;;;;;;;10.87;100.00;98931.53;5074103;28;20036;-65
2021/01/20 09:45:20;;;;;;;69.43;15.02;;;;;;;10.85;100.00;98958.31;5073436;28;20083;-68
2021/01/20 09:47:46;;;;;;;64.00;13.50;;;;;;;10.86;100.00;98962.66;5073212;28;20166;-65
2021/01/20 09:50:16;;;;;;;74.35;16.83;;;;;;;10.87;100.00;98958.81;5073523;28;20135;-66
2021/01/20 09:52:47;;;;;;;60.58;14.40;;;;;;;10.87;100.00;98954.19;5073480;28;20190;-63
2021/01/20 09:55:14;;;;;;;86.22;14.80;;;;;;;10.88;100.00;98971.38;5077193;28;20052;-67
2021/01/20 09:57:40;;;;;;;63.17;13.65;;;;;;;10.89;100.00;98956.63;5085764;28;20031;-66
2021/01/20 10:00:07;;;;;;;77.65;14.65;;;;;;;10.89;100.00;98945.69;5078319;28;20483;-66
2021/01/20 10:02:33;;;;;;;71.50;14.80;;;;;;;10.89;100.00;98940.22;5083740;28;20027;-67
2021/01/20 10:04:59;;;;;;;77.03;13.57;;;;;;;10.91;100.00;98948.94;5083066;28;20404;-66
2021/01/20 10:07:25;;;;;;;67.15;12.80;;;;;;;10.92;100.00;98915.06;5076291;28;20055;-64
2021/01/20 10:09:51;;;;;;;79.68;15.23;;;;;;;10.92;100.00;98936.91;5076434;28;20028;-63
2021/01/20 10:12:20;;;;;;;80.25;13.90;;;;;;;10.93;100.00;98946.72;5055798;28;20020;-64
2021/01/20 10:14:46;;;;;;;71.20;12.95;;;;;;;10.96;100.00;98918.06;5073846;28;20051;-64
2021/01/20 10:17:12;;;;;;;69.60;14.25;;;;;;;10.95;100.00;98933.63;5054550;28;20028;-65
2021/01/20 10:19:38;;;;;;;69.88;13.77;;;;;;;10.97;100.00;98936.88;5054273;28;20044;-67
2021/01/20 10:22:04;;;;;;;76.70;14.98;;;;;;;10.98;100.00;98937.69;5072755;28;20035;-68
2021/01/20 10:24:29;;;;;;;70.50;13.25;;;;;;;10.96;100.00;98918.88;5077907;28;20047;-64
2021/01/20 10:26:55;;;;;;;83.70;15.10;;;;;;;10.96;100.00;98918.88;5072544;28;20064;-64
2021/01/20 10:29:20;;;;;;;83.97;14.93;;;;;;;10.98;100.00;98933.03;5054134;28;20047;-67
2021/01/20 10:31:46;;;;;;;84.35;14.70;;;;;;;10.95;100.00;98922.69;5072443;28;20055;-66
2021/01/20 10:34:12;;;;;;;85.38;16.48;;;;;;;10.96;100.00;98928.97;5072627;28;20036;-67
2021/01/20 10:36:39;;;;;;;83.00;13.65;;;;;;;10.96;100.00;98924.31;5072038;28;20040;-69
2021/01/20 10:39:06;;;;;;;80.95;13.85;;;;;;;10.97;100.00;98931.41;5072078;28;20032;-69
2021/01/20 10:41:32;;;;;;;76.05;13.75;;;;;;;10.98;100.00;98911.19;5072076;28;20045;-69
2021/01/20 10:43:57;;;;;;;81.95;14.20;;;;;;;10.98;100.00;98911.19;5072057;28;20818;-65
2021/01/20 10:46:26;;;;;;;80.15;14.82;;;;;;;10.98;100.00;98922.13;5071821;28;20552;-70
2021/01/20 10:48:59;;;;;;;82.20;14.32;;;;;;;11.00;100.00;98897.25;5072074;28;20036;-68
2021/01/20 10:51:28;;;;;;;68.20;13.60;;;;;;;10.99;100.00;98896.44;5072276;28;20036;-67
2021/01/20 10:53:53;;;;;;;71.93;13.63;;;;;;;10.97;100.00;98893.19;5071902;28;20589;-67
2021/01/20 10:56:19;;;;;;;75.32;12.70;;;;;;;10.97;100.00;98898.63;5071977;28;20045;-67
2021/01/20 10:58:44;;;;;;;64.35;11.82;;;;;;;10.98;100.00;98883.06;5077890;28;20036;-66
2021/01/20 11:01:10;;;;;;;67.93;12.85;;;;;;;10.98;100.00;98885.78;5071771;28;20039;-69
2021/01/20 11:03:39;;;;;;;70.68;13.13;;;;;;;10.98;100.00;98881.16;5072155;28;20109;-68
2021/01/20 11:06:05;;;;;;;72.72;11.48;;;;;;;10.98;100.00;98872.94;5071662;28;20079;-69
2021/01/20 11:08:30;;;;;;;58.35;11.38;;;;;;;10.98;100.00;98878.41;5071806;28;20445;-69
2021/01/20 11:10:56;;;;;;;55.00;9.93;;;;;;;10.97;100.00;98874.06;5053338;28;20025;-66
2021/01/20 11:13:22;;;;;;;57.40;11.80;;;;;;;10.96;100.00;98858.78;5071414;28;20040;-67
2021/01/20 11:15:48;;;;;;;55.30;11.27;;;;;;;10.96;100.00;98847.03;5053770;28;20036;-69
2021/01/20 11:18:15;;;;;;;69.82;11.65;;;;;;;10.95;100.00;98856.34;5071761;28;21032;-66
2021/01/20 11:20:42;;;;;;;59.03;11.70;;;;;;;10.93;100.00;98864.81;5071291;28;20052;-67
2021/01/20 11:23:12;;;;;;;56.88;11.32;;;;;;;10.93;100.00;98842.94;5071768;28;20086;-70
2021/01/20 11:25:52;;;;;;;78.45;13.82;;;;;;;10.93;100.00;98853.88;5071156;28;20056;-69
2021/01/20 11:28:18;;;;;;;74.55;12.48;;;;;;;10.93;100.00;98821.09;5071543;28;20118;-68
2021/01/20 11:30:45;;;;;;;64.20;11.70;;;;;;;10.95;100.00;98835.31;5069983;28;20043;-66
2021/01/20 11:33:11;;;;;;;70.30;11.82;;;;;;;10.95;100.00;98818.91;5071428;28;20036;-67
2021/01/20 11:35:37;;;;;;;75.15;12.15;;;;;;;10.95;100.00;98821.66;5071191;28;20028;-68
2021/01/20 11:38:04;;;;;;;65.88;12.45;;;;;;;10.96;100.00;98820.53;5071397;28;20040;-69
2021/01/20 11:40:32;;;;;;;71.57;12.63;;;;;;;10.98;100.00;98812.88;5071129;28;20050;-67
2021/01/20 11:42:58;;;;;;;66.85;11.63;;;;;;;10.99;100.00;98798.09;5070606;28;20029;-67
2021/01/20 11:45:32;;;;;;;70.70;12.20;;;;;;;10.99;100.00;98809.03;5070439;28;20556;-67
2021/01/20 11:47:58;;;;;;;75.30;13.48;;;;;;;11.00;100.00;98807.91;5071219;28;20043;-68